createdAt,value
2023-04-17T00:00:10.581Z,3.20
2023-04-17T00:02:40.597Z,3.20
2023-04-17T00:05:08.528Z,3.20
2023-04-17T00:07:38.883Z,2.90
2023-04-17T00:10:10.736Z,3.40
2023-04-17T00:12:38.204Z,3.10
2023-04-17T00:15:05.646Z,3.60
2023-04-17T00:17:32.912Z,3.40
2023-04-17T00:19:59.915Z,3.20
2023-04-17T00:22:27.308Z,3.60
2023-04-17T00:24:54.430Z,2.97
2023-04-17T00:27:21.477Z,3.70
2023-04-17T00:29:48.427Z,4.10
2023-04-17T00:32:16.399Z,3.27
2023-04-17T00:34:43.318Z,3.87
2023-04-17T00:37:10.217Z,3.70
2023-04-17T00:39:37.478Z,4.03
2023-04-17T00:42:05.412Z,3.47
2023-04-17T00:44:32.482Z,4.00
2023-04-17T00:46:59.821Z,3.63
2023-04-17T00:49:28.111Z,3.87
2023-04-17T00:51:55.849Z,3.10
2023-04-17T00:54:23.625Z,3.10
2023-04-17T00:56:52.696Z,3.40
2023-04-17T00:59:20.553Z,4.47
2023-04-17T01:01:47.554Z,3.50
2023-04-17T01:04:14.566Z,3.80
2023-04-17T01:06:42.021Z,3.63
2023-04-17T01:09:12.216Z,3.87
2023-04-17T01:11:39.574Z,3.67
2023-04-17T01:14:06.512Z,3.20
2023-04-17T01:16:34.083Z,3.27
2023-04-17T01:19:01.269Z,3.53
2023-04-17T01:21:28.247Z,3.57
2023-04-17T01:23:56.084Z,3.13
2023-04-17T01:26:31.674Z,2.90
2023-04-17T01:29:00.368Z,3.53
2023-04-17T01:31:29.425Z,3.07
2023-04-17T01:33:56.505Z,3.33
2023-04-17T01:36:23.497Z,2.97
2023-04-17T01:38:50.513Z,2.60
2023-04-17T01:41:18.752Z,2.73
2023-04-17T01:43:47.666Z,2.33
2023-04-17T01:46:14.867Z,2.70
2023-04-17T01:48:41.913Z,2.30
2023-04-17T01:51:09.054Z,2.50
2023-04-17T01:53:36.646Z,2.53
2023-04-17T01:56:03.699Z,2.70
2023-04-17T01:58:31.450Z,3.00
2023-04-17T02:01:00.089Z,2.80
2023-04-17T02:03:27.777Z,2.70
2023-04-17T02:05:55.310Z,2.50
2023-04-17T02:08:22.316Z,2.30
2023-04-17T02:10:49.510Z,2.10
2023-04-17T02:13:16.750Z,2.47
2023-04-17T02:15:43.951Z,3.00
2023-04-17T02:18:11.224Z,2.47
2023-04-17T02:20:38.898Z,2.37
2023-04-17T02:23:06.870Z,1.97
2023-04-17T02:25:34.170Z,2.20
2023-04-17T02:28:01.470Z,2.20
2023-04-17T02:30:28.830Z,2.47
2023-04-17T02:32:57.711Z,2.20
2023-04-17T02:35:32.141Z,2.03
2023-04-17T02:37:59.337Z,2.10
2023-04-17T02:40:27.489Z,1.80
2023-04-17T02:43:00.752Z,2.33
2023-04-17T02:45:29.102Z,2.40
2023-04-17T02:47:55.999Z,2.40
2023-04-17T02:50:23.862Z,2.23
2023-04-17T02:53:01.572Z,2.10
2023-04-17T02:55:28.591Z,2.13
2023-04-17T02:57:55.457Z,1.97
2023-04-17T03:00:23.008Z,1.97
2023-04-17T03:02:50.414Z,1.93
2023-04-17T03:05:20.398Z,1.97
2023-04-17T03:07:47.706Z,2.13
2023-04-17T03:10:15.788Z,2.07
2023-04-17T03:12:44.388Z,2.20
2023-04-17T03:15:13.294Z,2.27
2023-04-17T03:17:40.633Z,1.80
2023-04-17T03:20:08.863Z,1.80
2023-04-17T03:22:36.738Z,2.40
2023-04-17T03:25:06.071Z,1.80
2023-04-17T03:27:41.809Z,1.83
2023-04-17T03:30:09.795Z,1.77
2023-04-17T03:32:38.173Z,2.20
2023-04-17T03:35:05.724Z,1.57
2023-04-17T03:37:34.160Z,1.93
2023-04-17T03:40:01.520Z,1.97
2023-04-17T03:42:28.816Z,2.20
2023-04-17T03:44:56.328Z,1.80
2023-04-17T03:47:24.645Z,1.70
2023-04-17T03:49:51.727Z,1.83
2023-04-17T03:52:18.914Z,1.77
2023-04-17T03:54:50.883Z,1.63
2023-04-17T03:57:17.922Z,1.97
2023-04-17T03:59:45.539Z,1.40
2023-04-17T04:02:13.059Z,1.70
2023-04-17T04:04:40.676Z,2.00
2023-04-17T04:07:12.101Z,2.10
2023-04-17T04:09:39.295Z,2.10
2023-04-17T04:12:08.512Z,2.13
2023-04-17T04:14:42.117Z,2.47
2023-04-17T04:17:10.544Z,1.70
2023-04-17T04:19:38.708Z,1.70
2023-04-17T04:22:06.828Z,1.67
2023-04-17T04:24:41.154Z,1.50
2023-04-17T04:27:09.429Z,1.80
2023-04-17T04:29:37.899Z,1.63
2023-04-17T04:32:13.696Z,1.60
2023-04-17T04:34:44.745Z,1.57
2023-04-17T04:37:15.873Z,1.53
2023-04-17T04:39:44.684Z,1.70
2023-04-17T04:42:22.225Z,1.83
2023-04-17T04:44:59.056Z,1.27
2023-04-17T04:47:29.196Z,1.60
2023-04-17T04:49:56.304Z,1.70
2023-04-17T04:52:23.734Z,1.70
2023-04-17T04:54:54.585Z,1.50
2023-04-17T04:57:21.547Z,1.70
2023-04-17T05:00:12.222Z,1.70
2023-04-17T05:03:03.257Z,1.70
2023-04-17T05:05:50.421Z,1.97
2023-04-17T05:08:39.145Z,1.60
2023-04-17T05:11:30.770Z,1.63
2023-04-17T05:14:18.333Z,1.73
2023-04-17T05:17:05.932Z,2.03
2023-04-17T05:19:53.850Z,1.77
2023-04-17T05:22:42.281Z,1.27
2023-04-17T05:25:32.411Z,1.33
2023-04-17T05:28:21.383Z,1.43
2023-04-17T05:31:11.197Z,1.37
2023-04-17T05:34:01.596Z,1.30
2023-04-17T05:36:48.654Z,1.20
2023-04-17T05:39:35.632Z,1.20
2023-04-17T05:42:22.722Z,1.30
2023-04-17T05:45:09.662Z,1.20
2023-04-17T05:47:56.879Z,1.30
2023-04-17T05:50:44.164Z,1.03
2023-04-17T05:53:32.242Z,1.13
2023-04-17T05:56:19.849Z,1.23
2023-04-17T05:59:06.833Z,1.40
2023-04-17T06:01:54.936Z,1.77
2023-04-17T06:04:42.908Z,1.43
2023-04-17T06:07:30.463Z,1.47
2023-04-17T06:10:17.445Z,1.43
2023-04-17T06:13:04.270Z,1.33
2023-04-17T06:15:51.458Z,1.60
2023-04-17T06:18:39.006Z,1.57
2023-04-17T06:21:27.529Z,1.37
2023-04-17T06:24:14.383Z,1.50
2023-04-17T06:27:06.030Z,1.20
2023-04-17T06:29:52.904Z,1.00
2023-04-17T06:32:40.629Z,1.40
2023-04-17T06:35:28.087Z,1.97
2023-04-17T06:38:22.022Z,1.47
2023-04-17T06:41:09.149Z,2.37
2023-04-17T06:43:57.942Z,1.10
2023-04-17T06:46:56.034Z,1.60
2023-04-17T06:49:43.919Z,1.70
2023-04-17T06:52:32.448Z,1.60
2023-04-17T06:55:19.551Z,1.30
2023-04-17T06:58:06.447Z,1.20
2023-04-17T07:00:53.381Z,1.40
2023-04-17T07:03:40.460Z,1.07
2023-04-17T07:06:28.127Z,1.43
2023-04-17T07:09:15.021Z,1.50
2023-04-17T07:12:02.204Z,1.20
2023-04-17T07:14:49.358Z,1.07
2023-04-17T07:17:36.502Z,1.50
2023-04-17T07:20:24.187Z,1.17
2023-04-17T07:23:11.270Z,1.10
2023-04-17T07:25:58.116Z,1.27
2023-04-17T07:28:45.299Z,1.60
2023-04-17T07:31:32.303Z,1.10
2023-04-17T07:34:19.481Z,1.80
2023-04-17T07:37:06.372Z,1.27
2023-04-17T07:39:53.531Z,1.10
2023-04-17T07:42:40.495Z,1.00
2023-04-17T07:45:27.985Z,1.10
2023-04-17T07:48:14.887Z,1.10
2023-04-17T07:51:01.927Z,1.17
2023-04-17T07:53:48.856Z,1.40
2023-04-17T07:56:35.976Z,1.30
2023-04-17T07:59:22.810Z,1.10
2023-04-17T08:02:10.285Z,1.33
2023-04-17T08:04:57.249Z,1.10
2023-04-17T08:07:44.301Z,1.20
2023-04-17T08:10:31.218Z,1.17
2023-04-17T08:13:18.460Z,1.57
2023-04-17T08:16:05.455Z,1.10
2023-04-17T08:18:52.591Z,1.20
2023-04-17T08:21:39.466Z,1.20
2023-04-17T08:24:26.784Z,1.40
2023-04-17T08:27:13.745Z,1.20
2023-04-17T08:30:00.741Z,1.20
2023-04-17T08:32:48.078Z,1.10
2023-04-17T08:35:36.001Z,1.00
2023-04-17T08:38:22.862Z,1.20
2023-04-17T08:41:13.383Z,1.10
2023-04-17T08:44:00.587Z,0.97
2023-04-17T08:46:48.514Z,1.03
2023-04-17T08:49:35.677Z,1.17
2023-04-17T08:52:24.314Z,1.80
2023-04-17T08:55:11.201Z,1.50
2023-04-17T08:58:16.424Z,0.93
2023-04-17T09:01:04.991Z,1.03
2023-04-17T09:04:00.534Z,1.20
2023-04-17T09:06:47.653Z,1.20
2023-04-17T09:09:34.801Z,1.77
2023-04-17T09:12:30.972Z,0.90
2023-04-17T09:15:18.689Z,1.10
2023-04-17T09:18:06.675Z,0.93
2023-04-17T09:21:08.531Z,0.70
2023-04-17T09:24:12.942Z,0.87
2023-04-17T09:26:59.991Z,1.20
2023-04-17T09:29:46.869Z,1.67
2023-04-17T09:32:37.084Z,0.90
2023-04-17T09:35:24.783Z,1.10
2023-04-17T09:38:14.187Z,1.10
2023-04-17T09:41:02.117Z,0.73
2023-04-17T09:44:01.462Z,1.03
2023-04-17T09:46:59.102Z,0.80
2023-04-17T09:49:58.044Z,0.83
2023-04-17T09:52:44.872Z,0.70
2023-04-17T09:55:32.361Z,1.10
2023-04-17T09:58:25.918Z,1.00
2023-04-17T10:01:13.298Z,1.20
2023-04-17T10:04:01.359Z,0.83
2023-04-17T10:06:50.422Z,0.70
2023-04-17T10:09:37.270Z,0.83
2023-04-17T10:12:25.659Z,0.63
2023-04-17T10:15:12.746Z,0.90
2023-04-17T10:17:59.841Z,1.20
2023-04-17T10:20:46.662Z,4.17
2023-04-17T10:23:51.029Z,1.30
2023-04-17T10:26:49.720Z,0.80
2023-04-17T10:29:36.728Z,0.90
2023-04-17T10:32:29.654Z,0.97
2023-04-17T10:35:40.933Z,0.50
2023-04-17T10:38:28.685Z,0.70
2023-04-17T10:41:15.890Z,0.70
2023-04-17T10:44:04.532Z,1.30
2023-04-17T10:46:51.677Z,0.90
2023-04-17T10:49:41.555Z,0.80
2023-04-17T10:53:00.360Z,0.90
2023-04-17T10:55:47.876Z,0.70
2023-04-17T10:58:34.835Z,0.70
2023-04-17T11:01:30.357Z,0.50
2023-04-17T11:04:21.415Z,0.50
2023-04-17T11:07:08.720Z,0.87
2023-04-17T11:09:55.722Z,0.40
2023-04-17T11:12:42.562Z,1.00
2023-04-17T11:15:29.780Z,0.80
2023-04-17T11:18:17.809Z,0.90
2023-04-17T11:21:04.997Z,0.50
2023-04-17T11:23:54.410Z,1.40
2023-04-17T11:26:41.469Z,0.57
2023-04-17T11:29:54.647Z,0.60
2023-04-17T11:32:41.816Z,0.70
2023-04-17T11:35:29.877Z,0.90
2023-04-17T11:38:33.382Z,0.50
2023-04-17T11:41:22.192Z,0.40
2023-04-17T11:44:11.564Z,0.40
2023-04-17T11:46:59.048Z,0.40
2023-04-17T11:49:50.990Z,0.70
2023-04-17T11:52:38.172Z,1.00
2023-04-17T11:55:28.508Z,0.80
2023-04-17T11:58:16.267Z,0.40
2023-04-17T12:01:03.228Z,0.60
2023-04-17T12:03:54.624Z,0.50
2023-04-17T12:06:42.310Z,0.50
2023-04-17T12:09:39.127Z,0.50
2023-04-17T12:12:27.245Z,0.60
2023-04-17T12:15:14.042Z,0.50
2023-04-17T12:18:01.094Z,0.73
2023-04-17T12:20:47.981Z,0.60
2023-04-17T12:23:35.018Z,0.70
2023-04-17T12:26:21.974Z,0.50
2023-04-17T12:29:09.023Z,0.47
2023-04-17T12:31:55.848Z,0.63
2023-04-17T12:34:42.777Z,0.57
2023-04-17T12:37:29.610Z,1.87
2023-04-17T12:40:16.646Z,2.90
2023-04-17T12:43:03.673Z,3.17
2023-04-17T12:45:51.119Z,2.63
2023-04-17T12:48:38.173Z,2.53
2023-04-17T12:51:25.269Z,2.30
2023-04-17T12:54:12.354Z,2.73
2023-04-17T12:56:59.358Z,2.20
2023-04-17T12:59:46.278Z,2.63
2023-04-17T13:02:33.390Z,2.70
2023-04-17T13:05:20.484Z,2.13
2023-04-17T13:08:07.456Z,2.00
2023-04-17T13:10:54.441Z,2.23
2023-04-17T13:13:41.326Z,2.30
2023-04-17T13:16:29.789Z,2.40
2023-04-17T13:19:16.800Z,1.90
2023-04-17T13:22:03.840Z,2.30
2023-04-17T13:24:51.069Z,2.03
2023-04-17T13:27:38.135Z,1.93
2023-04-17T13:30:25.699Z,2.20
2023-04-17T13:33:12.623Z,2.00
2023-04-17T13:35:59.611Z,2.10
2023-04-17T13:38:46.571Z,2.30
2023-04-17T13:41:33.445Z,2.20
2023-04-17T13:44:20.348Z,2.50
2023-04-17T13:47:07.264Z,1.90
2023-04-17T13:49:54.243Z,1.90
2023-04-17T13:52:41.122Z,2.40
2023-04-17T13:55:28.647Z,2.10
2023-04-17T13:58:15.681Z,2.60
2023-04-17T14:01:02.931Z,2.40
2023-04-17T14:03:52.945Z,2.60
2023-04-17T14:06:40.136Z,1.73
2023-04-17T14:09:27.256Z,2.00
2023-04-17T14:12:14.385Z,1.93
2023-04-17T14:15:01.463Z,1.90
2023-04-17T14:17:48.924Z,2.20
2023-04-17T14:20:35.846Z,2.40
2023-04-17T14:23:22.767Z,2.23
2023-04-17T14:26:09.729Z,2.17
2023-04-17T14:28:56.810Z,2.47
2023-04-17T14:31:43.766Z,2.30
2023-04-17T14:34:30.963Z,2.37
2023-04-17T14:37:18.197Z,2.47
2023-04-17T14:40:05.144Z,2.73
2023-04-17T14:42:54.388Z,2.60
2023-04-17T14:45:41.805Z,2.20
2023-04-17T14:48:29.040Z,1.93
2023-04-17T14:51:17.000Z,2.30
2023-04-17T14:54:04.084Z,2.20
2023-04-17T14:56:51.061Z,1.90
2023-04-17T14:59:38.276Z,2.07
2023-04-17T15:02:28.100Z,2.80
2023-04-17T15:05:15.257Z,2.77
2023-04-17T15:08:02.233Z,2.10
2023-04-17T15:10:51.596Z,2.60
2023-04-17T15:13:38.671Z,2.37
2023-04-17T15:16:25.877Z,2.30
2023-04-17T15:19:12.998Z,2.20
2023-04-17T15:22:00.033Z,1.90
2023-04-17T15:24:47.109Z,2.20
2023-04-17T15:27:34.083Z,2.70
2023-04-17T15:30:21.110Z,2.00
2023-04-17T15:33:09.855Z,2.60
2023-04-17T15:35:57.733Z,2.57
2023-04-17T15:38:45.716Z,2.30
2023-04-17T15:41:33.029Z,2.67
2023-04-17T15:44:19.946Z,2.30
2023-04-17T15:47:06.975Z,1.80
2023-04-17T15:49:54.326Z,2.00
2023-04-17T15:52:41.441Z,1.80
2023-04-17T15:55:28.861Z,2.63
2023-04-17T15:58:16.036Z,2.40
2023-04-17T16:01:02.915Z,2.17
2023-04-17T16:03:50.107Z,2.53
2023-04-17T16:06:37.239Z,2.20
2023-04-17T16:09:24.168Z,2.10
2023-04-17T16:12:11.371Z,2.00
2023-04-17T16:14:58.566Z,2.00
2023-04-17T16:17:45.855Z,2.20
2023-04-17T16:20:33.355Z,2.20
2023-04-17T16:23:20.275Z,2.57
2023-04-17T16:26:07.116Z,2.10
2023-04-17T16:28:54.930Z,2.17
2023-04-17T16:31:42.111Z,2.10
2023-04-17T16:34:29.112Z,2.33
2023-04-17T16:37:16.065Z,2.30
2023-04-17T16:40:03.128Z,2.10
2023-04-17T16:42:50.476Z,2.37
2023-04-17T16:45:37.513Z,2.07
2023-04-17T16:48:24.626Z,1.90
2023-04-17T16:51:11.740Z,2.27
2023-04-17T16:53:58.772Z,2.00
2023-04-17T16:56:45.734Z,1.80
2023-04-17T16:59:32.667Z,1.83
2023-04-17T17:02:19.703Z,2.00
2023-04-17T17:05:06.830Z,2.33
2023-04-17T17:07:53.791Z,2.20
2023-04-17T17:10:40.666Z,3.17
2023-04-17T17:13:27.603Z,2.67
2023-04-17T17:16:14.572Z,2.17
2023-04-17T17:19:01.670Z,2.00
2023-04-17T17:21:48.633Z,1.90
2023-04-17T17:24:35.603Z,2.37
2023-04-17T17:27:22.477Z,2.30
2023-04-17T17:30:09.448Z,2.00
2023-04-17T17:32:56.516Z,2.60
2023-04-17T17:35:43.721Z,1.97
2023-04-17T17:38:30.595Z,2.67
2023-04-17T17:41:17.503Z,2.23
2023-04-17T17:44:04.431Z,2.00
2023-04-17T17:46:51.427Z,2.20
2023-04-17T17:49:38.455Z,2.57
2023-04-17T17:52:25.615Z,2.20
2023-04-17T17:55:12.457Z,1.97
2023-04-17T17:57:59.391Z,2.13
2023-04-17T18:00:46.316Z,2.00
2023-04-17T18:03:33.514Z,1.90
2023-04-17T18:06:21.443Z,3.40
2023-04-17T18:09:08.538Z,2.13
2023-04-17T18:11:56.888Z,2.00
2023-04-17T18:14:43.831Z,4.03
2023-04-17T18:17:30.713Z,4.13
2023-04-17T18:20:17.800Z,1.97
2023-04-17T18:23:04.777Z,3.30
2023-04-17T18:25:51.881Z,2.17
2023-04-17T18:28:39.000Z,2.37
2023-04-17T18:31:25.857Z,2.43
2023-04-17T18:34:13.146Z,2.77
2023-04-17T18:37:00.448Z,2.50
2023-04-17T18:39:47.498Z,2.33
2023-04-17T18:42:34.412Z,2.73
2023-04-17T18:45:21.505Z,3.37
2023-04-17T18:48:08.445Z,2.73
2023-04-17T18:50:55.491Z,2.13
2023-04-17T18:53:42.304Z,2.17
2023-04-17T18:56:29.243Z,2.97
2023-04-17T18:59:16.117Z,2.43
2023-04-17T19:02:03.230Z,3.93
2023-04-17T19:04:50.267Z,3.87
2023-04-17T19:07:37.333Z,4.50
2023-04-17T19:10:24.616Z,3.97
2023-04-17T19:13:12.092Z,3.60
2023-04-17T19:15:59.126Z,3.77
2023-04-17T19:18:46.141Z,3.00
2023-04-17T19:21:33.119Z,4.57
2023-04-17T19:24:20.174Z,4.80
2023-04-17T19:27:07.058Z,4.80
2023-04-17T19:29:54.531Z,5.30
2023-04-17T19:32:41.601Z,4.47
2023-04-17T19:35:29.055Z,3.27
2023-04-17T19:38:17.213Z,3.10
2023-04-17T19:41:40.163Z,4.30
2023-04-17T19:44:27.962Z,5.20
2023-04-17T19:47:17.089Z,5.00
2023-04-17T19:50:04.006Z,5.77
2023-04-17T19:52:51.048Z,5.53
2023-04-17T19:55:38.073Z,4.73
2023-04-17T19:58:21.098Z,3.90
2023-04-17T20:00:48.064Z,3.63
2023-04-17T20:03:15.382Z,3.53
2023-04-17T20:05:43.078Z,3.87
2023-04-17T20:08:10.708Z,3.60
2023-04-17T20:10:37.662Z,3.90
2023-04-17T20:13:04.664Z,3.70
2023-04-17T20:15:31.757Z,4.90
2023-04-17T20:17:58.897Z,6.07
2023-04-17T20:20:25.970Z,4.83
2023-04-17T20:22:53.044Z,4.60
2023-04-17T20:25:19.935Z,4.90
2023-04-17T20:28:06.892Z,4.40
2023-04-17T20:30:53.943Z,4.70
2023-04-17T20:33:40.925Z,4.83
2023-04-17T20:36:29.932Z,4.50
2023-04-17T20:39:16.993Z,4.23
2023-04-17T20:42:03.856Z,4.57
2023-04-17T20:44:51.908Z,3.30
2023-04-17T20:47:43.497Z,4.33
2023-04-17T20:50:40.365Z,3.63
2023-04-17T20:53:27.237Z,3.23
2023-04-17T20:56:14.219Z,3.10
2023-04-17T20:59:01.074Z,3.83
2023-04-17T21:01:48.176Z,3.50
2023-04-17T21:04:35.091Z,4.57
2023-04-17T21:07:22.507Z,3.87
2023-04-17T21:10:10.106Z,4.53
2023-04-17T21:12:57.199Z,3.30
2023-04-17T21:15:44.111Z,3.63
2023-04-17T21:18:31.167Z,3.90
2023-04-17T21:21:18.110Z,4.30
2023-04-17T21:24:05.146Z,3.17
2023-04-17T21:26:52.084Z,3.07
2023-04-17T21:29:39.058Z,2.77
2023-04-17T21:32:26.098Z,3.10
2023-04-17T21:35:13.292Z,2.60
2023-04-17T21:38:00.198Z,3.93
2023-04-17T21:43:37.017Z,3.67
2023-04-17T21:46:24.174Z,2.90
2023-04-17T21:49:11.217Z,3.00
2023-04-17T21:51:58.173Z,3.93
2023-04-17T21:54:45.137Z,3.10
2023-04-17T21:57:32.106Z,2.80
2023-04-17T22:00:19.529Z,3.40
2023-04-17T22:03:06.618Z,3.13
2023-04-17T22:05:53.668Z,2.73
2023-04-17T22:08:40.622Z,2.90
2023-04-17T22:11:27.741Z,3.63
2023-04-17T22:14:15.130Z,3.07
2023-04-17T22:17:02.721Z,2.77
2023-04-17T22:19:49.694Z,2.10
2023-04-17T22:22:36.632Z,2.37
2023-04-17T22:25:23.776Z,2.23
2023-04-17T22:28:10.697Z,2.13
2023-04-17T22:30:57.573Z,2.80
2023-04-17T22:33:44.573Z,2.43
2023-04-17T22:36:31.785Z,2.43
2023-04-17T22:39:18.762Z,2.70
2023-04-17T22:42:05.838Z,2.97
2023-04-17T22:44:52.923Z,2.83
2023-04-17T22:47:41.764Z,2.77
2023-04-17T22:50:28.889Z,2.00
2023-04-17T22:53:16.777Z,2.23
2023-04-17T22:56:03.686Z,1.97
2023-04-17T22:58:52.338Z,2.27
2023-04-17T23:01:39.288Z,2.13
2023-04-17T23:04:26.373Z,1.80
2023-04-17T23:07:13.294Z,1.90
2023-04-17T23:10:00.216Z,2.07
2023-04-17T23:12:47.192Z,1.80
2023-04-17T23:15:34.494Z,2.20
2023-04-17T23:18:21.347Z,2.47
2023-04-17T23:21:08.535Z,1.97
2023-04-17T23:23:55.413Z,1.90
2023-04-17T23:26:42.383Z,1.97
2023-04-17T23:29:29.258Z,1.73
2023-04-17T23:32:16.277Z,1.80
2023-04-17T23:35:03.150Z,1.40
2023-04-17T23:37:50.165Z,1.50
2023-04-17T23:40:37.326Z,1.23
2023-04-17T23:43:24.324Z,1.30
2023-04-17T23:46:11.214Z,1.10
2023-04-17T23:48:58.314Z,0.93
2023-04-17T23:51:45.495Z,2.40
2023-04-17T23:54:32.773Z,1.47
2023-04-17T23:57:19.612Z,1.50
